Historie AUP a zpráv METAR Praha-Ruzyně z 12:00 UTC

Datum: 20-04-2021 / Vyber datum:
LKPR 201200Z VRB02KT 9999 FEW040TCU SCT043 15/04 Q1015 NOSIG
Prostor Spodní hranice Horní hranice Od Do
TRA13 GND 5000FT/AMSL 14:30 23:30
TRA56 1000FT/AGL F125 08:00 20:00
TRA57 3000FT/AMSL F125 08:00 20:00
TRA6 GND 1000FT/AGL 06:00 13:00
TRA61 GND 3000FT/AMSL 07:00 14:00
TRA62 3000FT/AMSL F245 07:00 14:00
TRA71 GND 1000FT/AGL 08:00 18:02
TRA72 GND 3000FT/AMSL 08:00 18:02
TRA73 GND 2500FT/AMSL 08:00 18:02
TRA76 1000FT/AGL F075 16:00 21:00
TRA77 1000FT/AGL F245 07:00 14:00
TRA78 1000FT/AGL F245 16:00 21:00
TRA79 F095 F245 16:00 21:00
TSA1 GND F165 07:00 13:00
TSA2A GND F125 06:00 15:10
TSA20 300FT/AGL 1000FT/AGL 16:00 18:02
TSA26 300FT/AGL 1000FT/AGL 16:00 18:02
TSA27 300FT/AGL 1000FT/AGL 07:00 14:00
TSA3A GND F285 07:00 23:30